Terminal Aerodrome Forecast
Issued by NWS

Home | Current Version | Previous Version | Text Only | Print | Product List | Glossary On
Versions: 1 2 3 4 5 6 7 8 9 10 11 12 13
000
FTUS45 KRIW 231700 AAA
TAFWRL
TAF AMD
KWRL 231747Z 2318/2418 33013KT P6SM VCSH BKN070 OVC100
     FM231900 30010KT P6SM BKN060
     FM240100 VRB06KT P6SM SCT120=

USA.gov is the U.S. government's official web portal to all federal, state and local government web resources and services.